Alice Town, Bahamas

7:35 PM EDT on July 27, 2016 (GMT -0400)
IBIMINIA2 | | Change Station

Elev 0 ft 25.73 °N, 79.30 °W | Updated 10 seconds ago

Partly Cloudy
Partly Cloudy
86.1 °F
Feels Like 99 °F
N
6.0
Wind Variable Wind from ESE

Today
High -- | Low -- °F
--% Chance of Precip.
Yesterday
High -- | Low -- °F
Precip. -- in
Pressure 30.02 in
Visibility 10.0 miles
Clouds Few 2500 ft
Heat Index 99 °F
Dew Point 78 °F
Humidity 77%
Rainfall 0.24 in
Snow Depth Not available.
6:41 AM 8:05 PM
Last Quarter, 38% visible
METAR KFLL 272253Z 09010KT 10SM FEW025 31/24 A3002 RMK AO2 SLP164 T03060244
Pressure 30.02 in
Visibility 10.0 miles
Clouds Few 2500 ft
Heat Index 99 °F
Dew Point 78 °F
Humidity 77%
Rainfall 0.24 in
Snow Depth Not available.
6:41 AM 8:05 PM
Last Quarter, 38% visible
METAR KFLL 272253Z 09010KT 10SM FEW025 31/24 A3002 RMK AO2 SLP164 T03060244

10-Day Weather Forecast

Almanac

Astronomy

Jul. 27, 2016 Rise Set
Actual Time
Civil Twilight
Nautical Twilight
Astronomical Twilight
Moon
Length of Visible Light
Length of Day
Tomorrow will be .
, % of the Moon is Illuminated

Today's Extremes

Country Highs Country Lows

Community

WunderPhotos

Upload Photos

1,927,957 photos uploaded!

WunderBlog® & News

Nearby

Air Quality

  Air Quality AQ Index Pollutant
Not available.

Snow Depth

Station Depth Elevation

Earthquake Activity

City Distance Mag. Time & Date
Minimum magnitude displayed is 2.5.

Coastal Water Temperatures

Place Temperature

Stations

Nearby Weather Stations

Station Location Temp. Windchill Dew Point Humidity Wind Precip. Elev Updated Type